Pendleton, OR (97801)

5:43 PM PDT on October 24, 2014 (GMT -0700)
Sun Ridge Estates | Change Station
CLOSE
Current Station
Personal Weather Station
Location: Pendleton, OR
Elevation: 1210 ft
Nearby Weather Stations
Active Advisory: Wind Advisory

Elev 1210 ft 45.65 °N, 118.79 °W | Updated 10 minutes ago

Overcast
Overcast
53.7 °F
Feels Like 53.7 °F
N
3.0
Wind Variable Wind from ENE
Gusts 6.0 mph

Today
High -- | Low -- °F
--% Chance of Precip.
Yesterday
High -- | Low -- °F
Precip. -- in
7:23 AM 5:53 PM
New Moon, 1% visible
Pressure 29.94 in
Visibility 10.0 miles
Clouds Mostly Cloudy 6000 ft
Overcast 7500 ft
Dew Point 49 °F
Humidity 85%
Rainfall 0.00 in
Snow Depth 2 in
UV 0 out of 12
Pollen .90 out of 12
Air Quality Not available.
Flu Activity Sporadic
METAR KPDT 242353Z 03013KT 10SM -RA BKN060 OVC075 11/08 A2995 RMK AO2 SLP138 P0001 60001 T01110083 10144 20111 58012

More Conditions Fewer Conditions

Pressure 29.94 in
Visibility 10.0 miles
Clouds Mostly Cloudy 6000 ft
Overcast 7500 ft
Dew Point 49 °F
Humidity 85%
Rainfall 0.00 in
Snow Depth 2 in
UV 0 out of 12
Pollen .90 out of 12
Air Quality Not available.
Flu Activity Sporadic
METAR KPDT 242353Z 03013KT 10SM -RA BKN060 OVC075 11/08 A2995 RMK AO2 SLP138 P0001 60001 T01110083 10144 20111 58012

More Conditions Fewer Conditions

10-Day Weather Forecast

Almanac

Astronomy

Oct. 24, 2014 Rise Set
Actual Time 7:23 AM PDT 5:53 PM PDT
Civil Twilight 6:53 AM PDT 6:24 PM PDT
Nautical Twilight 6:18 AM PDT 6:58 PM PDT
Astronomical Twilight 5:44 AM PDT 7:33 PM PDT
Moon 8:09 AM PDT (10/24) 6:34 PM PDT (10/24)
Length of Visible Light 11h 30m
Length of Day
10h 30m
Tomorrow will be 3m 0s shorter.
New Moon, 1% of the Moon is Illuminated
Today
New Moon
Oct 30
First Quarter
Nov 6
Full
Nov 14
Last Quarter
Nov 22
New

Today's Extremes

State Highs State Lows

Community

WunderPhotos

Upload Photos

1,764,735 photos uploaded!

WunderBlogs® & News

Nearby

Snow Depth

Station Depth Elevation
Emigrant Springs 2 in 3925 ft
Bowman Springs 0 in 4580 ft
Lucky Strike 2 in 5050 ft
High Ridge 0 in 4980 ft
County Line 0 in 4800 ft

Earthquake Activity

City Distance Mag. Time & Date
No recent earthquake activity has been reported nearby.
Minimum magnitude displayed is 2.5.

Coastal Water Temperatures

Place Temperature
No Stations Reporting

Nearby Weather Stations